Terminal Aerodrome Forecast
Issued by NWS

Home | Current Version | Previous Version | Text Only | Print | Product List | Glossary Off
Versions: 1 2 3 4 5 6 7 8 9 10 11 12 13 14 15 16 17 18 19

000
FTUS43 KICT 240822 AAA
TAFHUT
TAF AMD
KHUT 240822Z 2408/2506 13010KT 5SM -DZ BR SCT008 OVC015
     FM240930 16012KT 4SM -DZ BR SCT004 OVC007
     FM241100 16013KT 2SM -DZ BR SCT002 OVC004
     FM241500 17016G23KT 4SM BR SCT004 OVC007
     FM241700 18019G27KT P6SM BKN015
     FM241900 18022G30KT P6SM BKN030=

USA.gov is the U.S. government's official web portal to all federal, state and local government web resources and services.